• Join FlightAware (Why Join?)
  • Login
  • US Flag 
05:50AM EDT


 

Airport Tracker/Info


-or-


 

Live Flight TrackerFlight Track Log ✈ AWE3827 ✈ 08-May-2013 ✈ KCLT - KBNA

Flight Track Log - Related Links

Times and Time Zones

All times are in EDT time to prevent confusion due to time zone crossing. See the AWE3827 flight status page for this flight to view local times or setup timezone preferences in your user account.

Time Position Orientation Groundspeed Altitude Reporting Facility
EDT Latitude Longitude Course Direction KTS MPH feet Rate Location/Type
08:26AM 35.1956 -80.9533 239° Southwest 162 186 1,300  Level Atlanta Center
08:27AM 35.1392 -80.9553 182° South 203 234 3,200 1,740 Climbing Atlanta Center
08:27AM 35.1164 -80.9639 197° South 247 284 3,800 2,400 Climbing Atlanta Center
08:28AM 35.1008 -81.0128 249° West 272 313 5,600 2,820 Climbing Atlanta Center
08:29AM 35.1075 -81.1089 275° West 261 300 8,400 2,580 Climbing Atlanta Center
08:30AM 35.1995 -81.3677 239° Southwest  Level FlightAware Approximate
08:30AM 35.1197 -81.1922 280° West 266 306 10,800  Level Atlanta Center
08:31AM 35.1496 -81.4676 239° Southwest  Level FlightAware Approximate
08:31AM 35.1222 -81.2989 272° West 309 356 12,700  Level Atlanta Center
08:32AM 35.1369 -81.3950 281° West 319 367 14,000 660 Climbing Atlanta Center
08:33AM 35.1453 -81.5014 276° West 324 373 14,100 960 Climbing Atlanta Center
08:34AM 35.1414 -81.6106 268° West 324 373 16,000 1,740 Climbing Atlanta Center
08:35AM 35.1331 -81.7250 265° West 331 381 17,600 1,380 Climbing Atlanta Center
08:36AM 35.1244 -81.8269 264° West 331 381 18,800 1,140 Climbing Atlanta Center
08:37AM 35.1142 -81.9439 264° West 344 396 19,900 1,140 Climbing Atlanta Center
08:38AM 35.1056 -82.0636 265° West 352 405 21,100 1,020 Climbing Atlanta Center
08:39AM 35.0950 -82.1883 264° West 367 422 22,000 960 Climbing Atlanta Center
08:40AM 35.1072 -82.3097 277° West 375 432 23,100 960 Climbing Atlanta Center
08:41AM 35.1631 -82.4153 303° West 351 404 24,000 900 Climbing Atlanta Center
08:42AM 35.2250 -82.5386 302° West 374 430 24,900 840 Climbing Atlanta Center
08:43AM 35.2719 -82.6319 302° West 379 436 25,700 540 Climbing Atlanta Center
08:44AM 35.3297 -82.7431 303° West 374 430 26,000 120 Climbing Atlanta Center
08:45AM 35.3850 -82.8517 302° West 384 442 26,000  Level Atlanta Center
08:46AM 35.4381 -82.9606 301° West 379 436 26,000  Level Atlanta Center
08:47AM 35.4892 -83.0644 301° West 366 421 26,000  Level Atlanta Center
08:48AM 35.5400 -83.1633 302° West 354 407 26,000  Level Atlanta Center
08:49AM 35.5906 -83.2597 303° West 349 402 26,000  Level Atlanta Center
08:50AM 35.6414 -83.3589 302° West 344 396 26,000  Level Atlanta Center
08:51AM 35.6878 -83.4583 300° West 339 390 26,000  Level Atlanta Center
08:52AM 35.7361 -83.5553 302° West 339 390 26,000  Level Atlanta Center
08:53AM 35.7864 -83.6522 303° West 339 390 26,000 -600 Level Atlanta Center
08:54AM 35.7869 -83.7750 270° West 339 390 24,900 -1,020 Descending Atlanta Center
08:55AM 35.7786 -83.8953 265° West 348 400 24,000 -900 Descending Atlanta Center
08:56AM 35.7706 -84.0106 265° West 348 400 23,200 -540 Descending Atlanta Center
08:57AM 35.7619 -84.1283 265° West 348 400 23,000 -120 Descending Atlanta Center
08:58AM 35.7536 -84.2461 265° West 348 400 23,000  Level Atlanta Center
08:59AM 35.7450 -84.3661 265° West 348 400 23,000  Level Atlanta Center
09:00AM 35.7361 -84.4864 265° West 348 400 23,000  Level Atlanta Center
09:01AM 35.7275 -84.6042 265° West 348 400 23,000 -120 Level Atlanta Center
09:02AM 35.7183 -84.7217 265° West 348 400 22,800 -600 Descending Atlanta Center
09:03AM 35.7094 -84.8392 265° West 348 400 21,800 -900 Descending Atlanta Center
09:05AM 35.6922 -85.0914 265° West 331 381 20,000 -600 Descending Memphis Center
09:06AM 35.6822 -85.1994 264° West 331 381 20,000  Level Memphis Center
09:07AM 35.6617 -85.3106 257° West 331 381 20,000  Level Memphis Center
09:08AM 35.6578 -85.4208 268° West 331 381 20,000 -840 Level Memphis Center
09:09AM 35.6600 -85.5306 271° West 331 381 18,400 -1,800 Descending Memphis Center
09:10AM 35.6600 -85.6353 270° West 326 375 16,500 -1,980 Descending Memphis Center
09:11AM 35.6597 -85.7400 270° West 320 368 14,500 -2,040 Descending Memphis Center
09:12AM 35.6656 -85.8394 274° West 310 357 12,500 -1,980 Descending Memphis Center
09:13AM 35.7000 -85.9294 295° West 294 338 10,600 -1,260 Descending Memphis Center
09:14AM 35.7364 -86.0144 298° West 287 330 10,000 -300 Descending Memphis Center
09:15AM 35.7728 -86.0994 298° West 277 319 10,000  Level Memphis Center
09:16AM 35.8069 -86.1847 296° West 277 319 10,000  Level Memphis Center
09:17AM 35.8431 -86.2725 297° West 277 319 10,000  Level Memphis Center
09:18AM 35.8775 -86.3631 295° West 277 319 10,000 -120 Level Memphis Center
09:19AM 35.8992 -86.4569 286° West 283 326 9,800 -900 Descending Memphis Center
09:20AM 35.9183 -86.5406 286° West 283 326 8,200 -1,500 Descending Memphis Center
09:21AM 35.9394 -86.6189 288° West 261 300 6,800 -1,740 Descending Memphis Center
09:22AM 35.9603 -86.6872 291° West 230 265 4,800 -1,920 Descending Memphis Center
09:23AM 35.9850 -86.7453 298° West 206 237 3,000 -1,800 Descending Memphis Center